createdAt,value
2023-05-16T00:05:50.655Z,98.0003
2023-05-16T00:11:58.651Z,98.0575
2023-05-16T00:13:00.226Z,98.0646
2023-05-16T00:14:00.573Z,98.1025
2023-05-16T00:15:02.146Z,98.1819
2023-05-16T00:16:02.140Z,98.2535
2023-05-16T00:17:04.402Z,98.2987
2023-05-16T00:18:05.727Z,98.3574
2023-05-16T00:19:07.208Z,98.3649
2023-05-16T00:21:07.329Z,98.3510
2023-05-16T00:22:09.114Z,98.3363
2023-05-16T00:23:10.847Z,98.3053
2023-05-16T00:24:12.752Z,98.2498
2023-05-16T00:25:14.855Z,98.2189
2023-05-16T00:26:16.637Z,98.2244
2023-05-16T00:28:20.621Z,98.2200
2023-05-16T00:29:21.780Z,98.2361
2023-05-16T00:31:24.981Z,98.2399
2023-05-16T00:32:26.223Z,98.2669
2023-05-16T00:33:27.296Z,98.3050
2023-05-16T00:34:28.694Z,98.3444
2023-05-16T00:35:28.970Z,98.3358
2023-05-16T00:37:33.035Z,98.3242
2023-05-16T00:38:34.072Z,98.3199
2023-05-16T00:45:41.260Z,98.1340
2023-05-16T00:46:42.120Z,98.1242
2023-05-16T00:50:47.294Z,98.2452
2023-05-16T00:51:47.708Z,98.2496
2023-05-16T00:52:47.832Z,98.2702
2023-05-16T00:53:49.949Z,98.3091
2023-05-16T00:54:51.328Z,98.3056
2023-05-16T00:55:52.723Z,98.2980
2023-05-16T00:56:52.834Z,98.3077
2023-05-16T00:57:54.282Z,98.3301
2023-05-16T00:58:55.391Z,98.3858
2023-05-16T00:59:56.709Z,98.4297
2023-05-16T01:00:56.890Z,98.4392
2023-05-16T01:02:59.997Z,98.4354
2023-05-16T01:04:02.040Z,98.4408
2023-05-16T01:05:03.270Z,98.4452
2023-05-16T01:08:07.544Z,98.5412
2023-05-16T01:25:26.481Z,98.2314
2023-05-16T01:26:26.409Z,98.1552
2023-05-16T01:27:27.687Z,98.1628
2023-05-16T01:28:27.886Z,98.2133
2023-05-16T01:42:48.154Z,97.7836
2023-05-16T01:43:50.689Z,97.7585
2023-05-16T01:44:50.850Z,97.5887
2023-05-16T01:45:52.111Z,97.2256
2023-05-16T01:46:53.001Z,96.9585
2023-05-16T01:47:54.236Z,96.8297
2023-05-16T01:48:55.946Z,96.8361
2023-05-16T01:50:55.969Z,96.4335
2023-05-16T02:17:20.433Z,97.7900
2023-05-16T02:18:22.332Z,97.8614
2023-05-16T02:19:23.902Z,97.9147
2023-05-16T02:25:29.738Z,98.0937
2023-05-16T02:26:30.730Z,98.0973
2023-05-16T02:27:32.276Z,98.1432
2023-05-16T02:39:41.132Z,98.2386
2023-05-16T02:40:43.139Z,98.2365
2023-05-16T02:41:42.981Z,98.2401
2023-05-16T02:42:45.137Z,98.2452
2023-05-16T02:43:47.510Z,98.2587
2023-05-16T02:45:48.901Z,98.2935
2023-05-16T02:46:49.509Z,98.3285
2023-05-16T02:48:50.618Z,98.3666
2023-05-16T02:49:51.555Z,98.4083
2023-05-16T02:50:52.850Z,98.4271
2023-05-16T02:51:54.261Z,98.4170
2023-05-16T02:52:54.709Z,98.4192
2023-05-16T03:00:02.224Z,98.5461
2023-05-16T03:14:19.696Z,98.8087
2023-05-16T03:15:22.182Z,98.8303
2023-05-16T03:16:23.784Z,98.8399
2023-05-16T03:17:25.304Z,98.8541
2023-05-16T03:18:28.234Z,98.8726
2023-05-16T03:19:28.053Z,98.8902
2023-05-16T03:22:31.947Z,98.9074
2023-05-16T03:31:43.914Z,99.0757
2023-05-16T03:32:44.572Z,99.0729
2023-05-16T03:34:47.742Z,99.1004
2023-05-16T03:35:47.928Z,99.1044
2023-05-16T03:36:49.045Z,99.1012
2023-05-16T03:37:49.192Z,99.1193
2023-05-16T03:38:50.182Z,99.1640
2023-05-16T03:50:59.960Z,99.2093
2023-05-16T03:52:01.433Z,99.2036
2023-05-16T03:54:03.932Z,99.2193
2023-05-16T03:55:04.257Z,99.2214
2023-05-16T03:58:05.712Z,99.2274
2023-05-16T04:00:09.030Z,99.2388
2023-05-16T04:01:10.227Z,99.2515
2023-05-16T04:02:12.597Z,99.2628
2023-05-16T04:03:12.601Z,99.2790
2023-05-16T04:04:14.548Z,99.2884
2023-05-16T04:05:16.517Z,99.2898
2023-05-16T04:06:19.355Z,99.2811
2023-05-16T04:07:22.561Z,99.2835
2023-05-16T04:08:21.271Z,99.2709
2023-05-16T04:09:23.967Z,99.2510
2023-05-16T04:10:24.622Z,99.2585
2023-05-16T04:16:31.570Z,99.2743
2023-05-16T04:17:32.043Z,99.2833
2023-05-16T04:18:35.057Z,99.2647
2023-05-16T04:22:36.639Z,99.2665
2023-05-16T04:23:37.400Z,99.2679
2023-05-16T04:24:37.834Z,99.2651
2023-05-16T04:44:57.973Z,98.7535
2023-05-16T04:56:08.099Z,97.8066
2023-05-16T04:57:08.146Z,97.7645
2023-05-16T05:03:12.923Z,97.0341
2023-05-16T05:04:15.457Z,96.6632
2023-05-16T05:05:16.705Z,96.5349
2023-05-16T05:06:16.691Z,96.6118
2023-05-16T05:07:18.467Z,96.4968
2023-05-16T05:09:21.456Z,96.1498
2023-05-16T05:10:21.343Z,95.9659
2023-05-16T05:19:32.315Z,95.3830
2023-05-16T05:20:33.866Z,95.2323
2023-05-16T05:22:36.511Z,94.7010
2023-05-16T05:23:37.772Z,94.9033
2023-05-16T05:24:39.477Z,94.8172
2023-05-16T05:25:40.428Z,94.8180
2023-05-16T05:26:42.165Z,94.8700
2023-05-16T05:27:44.120Z,94.8530
2023-05-16T05:29:03.910Z,94.9172
2023-05-16T05:33:54.696Z,94.6197
2023-05-16T05:34:55.234Z,94.7695
2023-05-16T05:36:56.484Z,95.0096
2023-05-16T05:47:05.595Z,92.6838
2023-05-16T05:48:05.512Z,92.8769
2023-05-16T05:50:06.959Z,92.7172
2023-05-16T05:51:08.820Z,92.8402
2023-05-16T05:52:09.067Z,93.0128
2023-05-16T05:53:11.315Z,92.8273
2023-05-16T05:54:13.574Z,92.4045
2023-05-16T05:55:13.867Z,92.5944
2023-05-16T05:57:15.148Z,92.3434
2023-05-16T05:58:18.107Z,92.0970
2023-05-16T06:00:21.011Z,91.8470
2023-05-16T06:01:21.364Z,91.8196
2023-05-16T06:02:22.912Z,92.2285
2023-05-16T06:03:25.120Z,91.8969
2023-05-16T06:04:25.567Z,92.4139
2023-05-16T06:05:26.896Z,92.6285
2023-05-16T06:06:28.630Z,92.9898
2023-05-16T06:07:29.735Z,93.1250
2023-05-16T06:21:42.128Z,92.3247
2023-05-16T06:22:42.252Z,93.0331
2023-05-16T06:23:42.604Z,92.6453
2023-05-16T06:24:43.961Z,92.7117
2023-05-16T06:25:45.314Z,93.0121
2023-05-16T06:26:46.509Z,92.7050
2023-05-16T06:27:48.619Z,92.5698
2023-05-16T06:28:50.138Z,92.5868
2023-05-16T06:29:52.089Z,92.3112
2023-05-16T06:30:53.003Z,92.5967
2023-05-16T06:31:55.398Z,92.5221
2023-05-16T06:32:57.411Z,92.3498
2023-05-16T06:34:59.449Z,92.2816
2023-05-16T06:35:59.710Z,92.4721
2023-05-16T06:41:05.569Z,92.5280
2023-05-16T06:42:07.694Z,92.3557
2023-05-16T06:43:09.592Z,92.4045
2023-05-16T06:44:11.215Z,91.9003
2023-05-16T06:45:13.065Z,91.7395
2023-05-16T06:46:13.237Z,91.8363
2023-05-16T06:48:15.746Z,91.2584
2023-05-16T06:49:15.824Z,91.0119
2023-05-16T06:50:17.416Z,90.8291
2023-05-16T06:51:18.356Z,91.1066
2023-05-16T06:52:20.180Z,91.1295
2023-05-16T06:53:20.294Z,91.2926
2023-05-16T06:54:22.780Z,90.7846
2023-05-16T06:55:22.652Z,91.4487
2023-05-16T06:57:25.582Z,90.6404
2023-05-16T06:58:27.759Z,90.7637
2023-05-16T07:08:34.745Z,91.3958
2023-05-16T07:10:36.768Z,90.7364
2023-05-16T07:20:47.739Z,89.1349
2023-05-16T07:21:49.070Z,88.2636
2023-05-16T07:22:50.568Z,88.3308
2023-05-16T07:24:53.456Z,87.1952
2023-05-16T07:28:57.896Z,87.5754
2023-05-16T07:29:59.920Z,88.0447
2023-05-16T07:32:03.432Z,88.2979
2023-05-16T07:33:04.140Z,87.8890
2023-05-16T07:34:04.788Z,87.5804
2023-05-16T07:35:04.998Z,87.5259
2023-05-16T07:36:16.638Z,88.5082
2023-05-16T07:38:10.527Z,88.6693
2023-05-16T07:39:12.032Z,88.3273
2023-05-16T07:40:13.801Z,87.9702
2023-05-16T07:42:16.064Z,88.5567
2023-05-16T07:43:17.857Z,88.4586
2023-05-16T07:44:20.076Z,88.8406
2023-05-16T07:45:21.563Z,87.3589
2023-05-16T07:57:34.815Z,79.1858
2023-05-16T08:00:36.579Z,81.6781
2023-05-16T08:12:50.884Z,83.7599
2023-05-16T08:13:52.116Z,82.4936
2023-05-16T08:22:01.243Z,81.1831
2023-05-16T08:23:01.803Z,81.6573
2023-05-16T08:24:02.274Z,82.1172
2023-05-16T08:25:02.340Z,82.5746
2023-05-16T08:26:03.524Z,82.7125
2023-05-16T08:27:04.622Z,82.5569
2023-05-16T08:28:06.128Z,82.5339
2023-05-16T08:29:07.607Z,82.4122
2023-05-16T08:30:09.180Z,82.2232
2023-05-16T08:31:09.250Z,82.8512
2023-05-16T08:32:10.132Z,83.1410
2023-05-16T08:37:12.557Z,83.4214
2023-05-16T08:48:21.611Z,82.5697
2023-05-16T08:49:23.350Z,83.1212
2023-05-16T08:50:23.611Z,82.3869
2023-05-16T08:51:25.482Z,81.8089
2023-05-16T08:52:26.132Z,82.2950
2023-05-16T08:53:28.343Z,82.5836
2023-05-16T08:54:29.701Z,82.0187
2023-05-16T08:55:31.653Z,82.0367
2023-05-16T08:56:32.036Z,81.8965
2023-05-16T08:57:32.068Z,83.3139
2023-05-16T08:58:32.430Z,82.4646
2023-05-16T08:59:32.505Z,82.5436
2023-05-16T09:01:37.277Z,79.5853
2023-05-16T09:02:37.975Z,79.7888
2023-05-16T09:03:40.027Z,79.8097
2023-05-16T09:04:40.064Z,79.3008
2023-05-16T09:05:41.820Z,79.1804
2023-05-16T09:06:42.866Z,81.8507
2023-05-16T09:07:43.694Z,82.1474
2023-05-16T09:08:45.351Z,81.7404
2023-05-16T09:09:47.806Z,81.5683
2023-05-16T09:10:49.908Z,81.9073
2023-05-16T09:12:53.144Z,82.1152
2023-05-16T09:13:54.060Z,82.8927
2023-05-16T09:14:54.766Z,81.4006
2023-05-16T09:15:55.116Z,81.4525
2023-05-16T09:16:56.049Z,82.1530
2023-05-16T09:17:56.397Z,82.5136
2023-05-16T09:18:58.265Z,81.9333
2023-05-16T09:19:58.177Z,82.7203
2023-05-16T09:22:00.851Z,82.2681
2023-05-16T09:23:01.426Z,81.8747
2023-05-16T09:24:03.217Z,81.8167
2023-05-16T09:25:08.652Z,81.8016
2023-05-16T09:50:32.410Z,91.4627
2023-05-16T09:51:32.727Z,91.8703
2023-05-16T09:52:34.659Z,92.6110
2023-05-16T09:53:36.312Z,93.1995
2023-05-16T09:54:37.010Z,93.5034
2023-05-16T09:55:38.038Z,93.4809
2023-05-16T09:56:38.481Z,93.6913
2023-05-16T09:57:40.731Z,94.0925
2023-05-16T09:58:42.103Z,94.2892
2023-05-16T10:11:02.350Z,95.1033
2023-05-16T10:12:02.181Z,95.0050
2023-05-16T10:24:13.399Z,91.7564
2023-05-16T11:02:58.358Z,97.3177
2023-05-16T11:19:48.224Z,96.9550
2023-05-16T11:20:50.313Z,96.9403
2023-05-16T11:21:52.300Z,97.0469
2023-05-16T11:22:52.585Z,97.0416
2023-05-16T11:23:53.322Z,96.9824
2023-05-16T11:24:55.084Z,97.0059
2023-05-16T11:25:55.417Z,97.1600
2023-05-16T11:26:57.632Z,97.1709
2023-05-16T11:27:59.560Z,97.1601
2023-05-16T11:28:59.953Z,97.2316
2023-05-16T11:30:04.261Z,97.3023
2023-05-16T12:27:17.165Z,94.2043
2023-05-16T12:28:17.239Z,93.6159
2023-05-16T12:29:18.209Z,93.7345
2023-05-16T12:30:20.457Z,93.4679
2023-05-16T12:32:22.279Z,93.2350
2023-05-16T12:33:23.072Z,92.9839
2023-05-16T12:34:24.892Z,93.0434
2023-05-16T12:35:26.153Z,93.1097
2023-05-16T12:36:27.287Z,93.5984
2023-05-16T12:37:28.729Z,93.8603
2023-05-16T12:38:30.975Z,93.8361
2023-05-16T12:39:35.131Z,93.7058
2023-05-16T12:55:55.911Z,93.8720
2023-05-16T12:56:56.825Z,94.1360
2023-05-16T12:57:59.343Z,95.0007
2023-05-16T12:59:00.435Z,94.8147
2023-05-16T13:00:02.480Z,94.3999
2023-05-16T13:01:02.404Z,93.9977
2023-05-16T13:21:22.850Z,92.7383
2023-05-16T13:31:38.025Z,90.4582
2023-05-16T13:32:40.093Z,90.4039
2023-05-16T13:33:40.340Z,89.6393
2023-05-16T13:34:42.372Z,89.0810
2023-05-16T13:35:43.860Z,89.0772
2023-05-16T13:36:54.300Z,90.0834
2023-05-16T13:50:34.309Z,87.0392
2023-05-16T13:55:34.967Z,89.5481
2023-05-16T13:56:36.377Z,89.4549
2023-05-16T13:57:38.452Z,89.1507
2023-05-16T13:58:48.931Z,89.4610
2023-05-16T14:00:15.230Z,89.1699
2023-05-16T14:00:46.384Z,88.5746
2023-05-16T14:01:42.179Z,87.0824
2023-05-16T14:02:42.551Z,86.8936
2023-05-16T14:03:43.666Z,86.7235
2023-05-16T14:04:49.771Z,87.1397
2023-05-16T14:05:47.610Z,86.6155
2023-05-16T14:06:48.147Z,87.6763
2023-05-16T14:18:01.203Z,86.9139
2023-05-16T14:41:29.246Z,86.0042
2023-05-16T14:42:29.521Z,85.6941
2023-05-16T14:43:30.894Z,86.7477
2023-05-16T14:44:31.231Z,86.2674
2023-05-16T14:45:33.160Z,86.4343
2023-05-16T14:46:35.079Z,86.4323
2023-05-16T14:47:35.631Z,86.7121
2023-05-16T14:48:35.880Z,87.9117
2023-05-16T14:49:36.308Z,87.9605
2023-05-16T14:50:38.409Z,87.4801
2023-05-16T14:51:39.777Z,88.2248
2023-05-16T14:52:41.867Z,88.8640
2023-05-16T14:53:46.674Z,88.1925
2023-05-16T15:27:17.063Z,88.4758
2023-05-16T15:28:22.447Z,86.4922
2023-05-16T15:34:24.420Z,87.0860
2023-05-16T15:35:26.324Z,87.2484
2023-05-16T15:36:27.847Z,86.5465
2023-05-16T15:37:28.786Z,87.5313
2023-05-16T15:38:30.497Z,87.6942
2023-05-16T15:39:32.737Z,86.4172
2023-05-16T15:40:33.084Z,86.7656
2023-05-16T15:43:36.098Z,86.9764
2023-05-16T15:59:53.064Z,86.0389
2023-05-16T16:01:55.013Z,85.7776
2023-05-16T16:02:57.230Z,85.3811
2023-05-16T16:03:57.701Z,86.0400
2023-05-16T16:04:59.313Z,85.6465
2023-05-16T16:08:03.464Z,85.8890
2023-05-16T16:09:05.488Z,86.0482
2023-05-16T16:10:06.501Z,85.7827
2023-05-16T16:11:08.157Z,84.8927
2023-05-16T16:12:08.832Z,85.7317
2023-05-16T16:13:10.879Z,85.9023
2023-05-16T16:14:12.422Z,85.5957
2023-05-16T16:15:13.307Z,85.2868
2023-05-16T16:16:13.762Z,85.3327
2023-05-16T16:17:15.721Z,86.1331
2023-05-16T16:18:18.096Z,86.3757
2023-05-16T16:19:19.808Z,87.0773
2023-05-16T16:20:21.568Z,86.0838
2023-05-16T16:21:23.723Z,86.6553
2023-05-16T16:22:25.155Z,87.5113
2023-05-16T16:23:26.510Z,87.5400
2023-05-16T16:24:28.117Z,87.2044
2023-05-16T16:25:30.399Z,87.5747
2023-05-16T16:26:30.561Z,87.8808
2023-05-16T16:27:32.477Z,87.8402
2023-05-16T16:28:34.511Z,88.1786
2023-05-16T16:29:35.115Z,88.4752
2023-05-16T16:30:36.190Z,88.0703
2023-05-16T16:31:36.786Z,86.6482
2023-05-16T16:32:38.048Z,87.5887
2023-05-16T16:33:40.063Z,87.8611
2023-05-16T16:34:41.903Z,87.1016
2023-05-16T16:35:43.650Z,87.0089
2023-05-16T16:36:45.509Z,86.4021
2023-05-16T16:38:05.619Z,86.3688
2023-05-16T16:49:33.332Z,85.9334
2023-05-16T16:50:36.064Z,84.9441
2023-05-16T16:51:37.462Z,85.4231
2023-05-16T16:52:37.504Z,85.7211
2023-05-16T16:53:39.141Z,85.5547
2023-05-16T16:54:39.520Z,86.1467
2023-05-16T16:55:41.418Z,86.1237
2023-05-16T16:56:40.543Z,85.9607
2023-05-16T16:57:41.148Z,86.6568
2023-05-16T16:58:42.361Z,86.5204
2023-05-16T16:59:44.148Z,87.2650
2023-05-16T17:00:45.055Z,87.0644
2023-05-16T17:01:47.202Z,86.9617
2023-05-16T17:02:48.646Z,86.4581
2023-05-16T17:05:53.157Z,85.5722
2023-05-16T17:06:53.595Z,85.8600
2023-05-16T17:07:56.496Z,86.2993
2023-05-16T17:20:13.162Z,86.1968
2023-05-16T17:30:30.338Z,87.6415
2023-05-16T17:31:32.452Z,87.3121
2023-05-16T17:32:33.681Z,87.9693
2023-05-16T17:33:36.258Z,87.5779
2023-05-16T17:34:37.637Z,87.0725
2023-05-16T17:35:39.118Z,87.4488
2023-05-16T17:36:40.580Z,87.5299
2023-05-16T17:37:40.956Z,87.3070
2023-05-16T17:38:43.382Z,88.2443
2023-05-16T17:39:43.691Z,87.1784
2023-05-16T17:41:46.279Z,86.7870
2023-05-16T17:52:59.594Z,86.3272
2023-05-16T17:54:01.543Z,86.7106
2023-05-16T17:55:03.515Z,86.2141
2023-05-16T18:01:09.877Z,87.2292
2023-05-16T18:02:10.105Z,87.4566
2023-05-16T18:03:12.721Z,87.6839
2023-05-16T18:04:13.481Z,87.2129
2023-05-16T18:11:19.252Z,86.6194
2023-05-16T18:12:19.297Z,86.8394
2023-05-16T18:18:23.988Z,86.9514
2023-05-16T18:33:39.164Z,86.2000
2023-05-16T18:42:48.856Z,86.6344
2023-05-16T18:50:55.289Z,87.2561
2023-05-16T18:59:02.559Z,89.1810
2023-05-16T19:00:03.714Z,88.9335
2023-05-16T19:01:03.854Z,89.2392
2023-05-16T19:02:04.015Z,89.2061
2023-05-16T19:03:04.088Z,89.2552
2023-05-16T19:07:09.804Z,90.0473
2023-05-16T19:08:10.503Z,89.5059
2023-05-16T19:09:12.234Z,89.2071
2023-05-16T19:10:13.053Z,88.7293
2023-05-16T19:11:13.391Z,89.0886
2023-05-16T19:12:15.676Z,89.6660
2023-05-16T19:13:15.845Z,89.3256
2023-05-16T19:15:18.428Z,89.9228
2023-05-16T19:16:20.198Z,89.4638
2023-05-16T19:18:24.376Z,90.0075
2023-05-16T19:19:25.077Z,89.2644
2023-05-16T19:20:25.601Z,89.9332
2023-05-16T19:21:25.812Z,90.7919
2023-05-16T19:23:28.841Z,90.7031
2023-05-16T19:24:30.131Z,91.0233
2023-05-16T19:25:32.026Z,90.6375
2023-05-16T19:26:33.992Z,90.5122
2023-05-16T19:27:34.824Z,90.4131
2023-05-16T19:42:07.588Z,90.9621
2023-05-16T19:44:28.732Z,90.7835
2023-05-16T19:45:30.696Z,90.7389
2023-05-16T20:01:48.941Z,91.2843
2023-05-16T20:20:09.910Z,92.4943
2023-05-16T20:21:10.385Z,92.0281
2023-05-16T20:22:11.819Z,92.5190
2023-05-16T20:23:13.327Z,92.0181
2023-05-16T20:25:14.726Z,92.5843
2023-05-16T20:26:17.548Z,92.9991
2023-05-16T20:27:17.650Z,92.9098
2023-05-16T20:28:18.694Z,92.7668
2023-05-16T20:41:31.768Z,92.9616
2023-05-16T20:42:32.033Z,92.6665
2023-05-16T20:43:32.324Z,92.1704
2023-05-16T20:44:34.079Z,92.8220
2023-05-16T20:45:34.479Z,93.4733
2023-05-16T20:46:35.281Z,92.6923
2023-05-16T20:47:35.380Z,92.8986
2023-05-16T20:48:37.121Z,93.5079
2023-05-16T21:01:50.900Z,92.5982
2023-05-16T21:06:57.767Z,92.9723
2023-05-16T21:07:59.858Z,93.0091
2023-05-16T21:09:01.124Z,93.4552
2023-05-16T21:10:02.283Z,94.2314
2023-05-16T21:11:03.799Z,94.5896
2023-05-16T21:12:04.079Z,94.9501
2023-05-16T21:13:05.029Z,95.3025
2023-05-16T21:14:06.477Z,95.5134
2023-05-16T21:26:21.554Z,94.2664
2023-05-16T21:27:22.316Z,94.2142
2023-05-16T21:28:22.638Z,94.3062
2023-05-16T21:29:24.389Z,93.8702
2023-05-16T21:30:26.465Z,93.5356
2023-05-16T21:31:28.419Z,91.7834
2023-05-16T21:32:30.235Z,92.2925
2023-05-16T21:33:31.460Z,93.1880
2023-05-16T21:34:33.237Z,92.8027
2023-05-16T21:35:35.025Z,92.7490
2023-05-16T21:36:36.720Z,91.9191
2023-05-16T21:37:38.340Z,92.2304
2023-05-16T21:38:39.634Z,92.1817
2023-05-16T21:39:41.878Z,91.7106
2023-05-16T21:41:45.498Z,91.6118
2023-05-16T21:48:53.757Z,92.2304
2023-05-16T21:51:58.376Z,90.9890
2023-05-16T21:53:00.175Z,91.7075
2023-05-16T21:54:00.907Z,91.9629
2023-05-16T21:55:02.369Z,92.1586
2023-05-16T21:56:03.592Z,90.8722
2023-05-16T21:57:04.748Z,90.3380
2023-05-16T21:58:05.861Z,91.9272
2023-05-16T21:59:06.045Z,91.0822
2023-05-16T22:00:08.017Z,90.6785
2023-05-16T22:01:09.856Z,89.1882
2023-05-16T22:02:11.456Z,90.2133
2023-05-16T22:03:14.076Z,91.6244
2023-05-16T22:05:14.423Z,93.1675
2023-05-16T22:13:26.557Z,87.3196
2023-05-16T22:29:44.599Z,86.3620
2023-05-16T22:30:44.853Z,85.5462
2023-05-16T22:31:47.017Z,85.6324
2023-05-16T22:32:48.926Z,87.4147
2023-05-16T22:33:50.401Z,85.6992
2023-05-16T22:34:50.475Z,85.4869
2023-05-16T22:35:53.001Z,85.5907
2023-05-16T22:50:07.411Z,86.3829
2023-05-16T22:51:09.711Z,87.1795
2023-05-16T22:52:11.916Z,84.4786
2023-05-16T22:53:13.553Z,84.0244
2023-05-16T22:54:14.269Z,84.1019
2023-05-16T22:55:14.749Z,85.8517
2023-05-16T22:56:15.200Z,83.7012
2023-05-16T22:59:16.496Z,84.9148
2023-05-16T23:14:34.584Z,85.5195
2023-05-16T23:15:36.014Z,86.4475
2023-05-16T23:16:36.562Z,86.9163
2023-05-16T23:20:41.273Z,84.9737
2023-05-16T23:21:42.359Z,81.4515
2023-05-16T23:22:43.954Z,85.3097
2023-05-16T23:23:44.759Z,83.0220
2023-05-16T23:24:46.536Z,82.8709
2023-05-16T23:25:46.849Z,83.4247
2023-05-16T23:26:48.642Z,83.7422
2023-05-16T23:28:50.206Z,83.3485
2023-05-16T23:29:50.862Z,81.7845
2023-05-16T23:30:51.199Z,84.1962
2023-05-16T23:31:52.045Z,85.1928
2023-05-16T23:32:52.514Z,83.0995
2023-05-16T23:34:55.064Z,82.2027
2023-05-16T23:35:55.825Z,84.9881
2023-05-16T23:36:56.376Z,87.2133
2023-05-16T23:37:57.929Z,84.3127
2023-05-16T23:38:59.782Z,84.1939
2023-05-16T23:40:01.147Z,82.7256
2023-05-16T23:42:03.387Z,84.1336
2023-05-16T23:43:04.553Z,86.4434
2023-05-16T23:45:07.593Z,86.4420
2023-05-16T23:46:09.286Z,87.0622
2023-05-16T23:51:15.225Z,87.1186
2023-05-16T23:52:15.612Z,86.9625
2023-05-16T23:53:15.696Z,86.0595
2023-05-16T23:54:18.013Z,87.8468
